FDX3169 MPTO-MROC
Flight info
| Callsign | FDX3169 |
|---|---|
| Flight time | 0h 53m |
| Altitude | 32000 |
| Route | PUDOS DCT ISEBA CUARE4I |
| Aircraft | B77L/H-SDE1E2E3FGHIJ2J3J4J5M1RWXY/LB1D1 |
Departure
| Time | 2026-05-05 00:35 |
|---|---|
| Airport | Tocumen International Airport (MPTO) |
Arrival
| Time | 2026-05-05 01:28 |
|---|---|
| Airport | Juan Santamaría International Airport (MROC) |
| Time | Latitude | Longitude | Altitude | Speed | Heading |
|---|---|---|---|---|---|
| 2026-05-05 00:14 | 9.08652 | -79.37493 | 43 ft | 0 kts | 96° |
| 2026-05-05 00:22 | 9.08652 | -79.37495 | 43 ft | 18 kts | 96° |
| 2026-05-05 00:22 | 9.08724 | -79.37545 | 43 ft | 0 kts | 211° |
| 2026-05-05 00:22 | 9.08541 | -79.37655 | 44 ft | 385 kts | 211° |
| 2026-05-05 00:23 | 9.08729 | -79.37542 | 42 ft | 0 kts | 211° |
| 2026-05-05 00:23 | 9.08132 | -79.37904 | 46 ft | 0 kts | 211° |
| 2026-05-05 00:23 | 9.08676 | -79.37549 | 43 ft | 0 kts | 214° |
| 2026-05-05 00:29 | 9.08675 | -79.37549 | 43 ft | 0 kts | 214° |
| 2026-05-05 00:29 | 9.08673 | -79.37551 | 43 ft | 0 kts | 214° |
| 2026-05-05 00:29 | 9.08671 | -79.37552 | 43 ft | 1 kts | 214° |
| 2026-05-05 00:30 | 9.08660 | -79.37560 | 43 ft | 4 kts | 215° |
| 2026-05-05 00:30 | 9.08628 | -79.37583 | 44 ft | 7 kts | 215° |
| 2026-05-05 00:30 | 9.08577 | -79.37620 | 44 ft | 11 kts | 215° |
| 2026-05-05 00:30 | 9.08510 | -79.37676 | 44 ft | 14 kts | 222° |
| 2026-05-05 00:31 | 9.08428 | -79.37760 | 45 ft | 21 kts | 225° |
| 2026-05-05 00:31 | 9.08327 | -79.37865 | 46 ft | 21 kts | 226° |
| 2026-05-05 00:31 | 9.08225 | -79.37970 | 46 ft | 21 kts | 224° |
| 2026-05-05 00:31 | 9.08111 | -79.38060 | 47 ft | 21 kts | 210° |
| 2026-05-05 00:32 | 9.07987 | -79.38133 | 48 ft | 21 kts | 211° |
| 2026-05-05 00:32 | 9.07863 | -79.38209 | 49 ft | 21 kts | 211° |
| 2026-05-05 00:32 | 9.07738 | -79.38284 | 50 ft | 21 kts | 211° |
| 2026-05-05 00:32 | 9.07613 | -79.38358 | 50 ft | 21 kts | 211° |
| 2026-05-05 00:33 | 9.07487 | -79.38432 | 51 ft | 21 kts | 210° |
| 2026-05-05 00:33 | 9.07367 | -79.38502 | 48 ft | 12 kts | 211° |
| 2026-05-05 00:33 | 9.07334 | -79.38550 | 49 ft | 9 kts | 281° |
| 2026-05-05 00:33 | 9.07365 | -79.38604 | 49 ft | 9 kts | 301° |
| 2026-05-05 00:34 | 9.07397 | -79.38651 | 49 ft | 8 kts | 322° |
| 2026-05-05 00:34 | 9.07433 | -79.38639 | 50 ft | 5 kts | 38° |
| 2026-05-05 00:34 | 9.07441 | -79.38634 | 51 ft | 0 kts | 30° |
| 2026-05-05 00:34 | 9.07447 | -79.38630 | 49 ft | 8 kts | 30° |
| 2026-05-05 00:35 | 9.07634 | -79.38518 | 46 ft | 64 kts | 31° |
| 2026-05-05 00:35 | 9.08233 | -79.38160 | 45 ft | 133 kts | 31° |
| 2026-05-05 00:35 | 9.09167 | -79.37597 | 138 ft | 170 kts | 31° |
| 2026-05-05 00:35 | 9.10198 | -79.36978 | 742 ft | 174 kts | 30° |
| 2026-05-05 00:36 | 9.11245 | -79.36369 | 1408 ft | 171 kts | 28° |
| 2026-05-05 00:36 | 9.12277 | -79.35760 | 2059 ft | 176 kts | 29° |
| 2026-05-05 00:36 | 9.13411 | -79.35084 | 2284 ft | 202 kts | 30° |
| 2026-05-05 00:36 | 9.14708 | -79.34303 | 2495 ft | 232 kts | 30° |
| 2026-05-05 00:37 | 9.16155 | -79.33428 | 2987 ft | 247 kts | 31° |
| 2026-05-05 00:37 | 9.17669 | -79.32510 | 3656 ft | 259 kts | 31° |
| 2026-05-05 00:37 | 9.19231 | -79.31560 | 4467 ft | 264 kts | 31° |
| 2026-05-05 00:37 | 9.20813 | -79.30620 | 5313 ft | 265 kts | 26° |
| 2026-05-05 00:38 | 9.22623 | -79.30234 | 5961 ft | 273 kts | 355° |
| 2026-05-05 00:38 | 9.24435 | -79.30819 | 6732 ft | 280 kts | 329° |
| 2026-05-05 00:38 | 9.25850 | -79.32166 | 7383 ft | 289 kts | 304° |
| 2026-05-05 00:38 | 9.26648 | -79.34049 | 8089 ft | 295 kts | 281° |
| 2026-05-05 00:39 | 9.26864 | -79.36137 | 8771 ft | 301 kts | 272° |
| 2026-05-05 00:39 | 9.26886 | -79.38279 | 9450 ft | 307 kts | 270° |
| 2026-05-05 00:39 | 9.26880 | -79.40461 | 10127 ft | 313 kts | 270° |
| 2026-05-05 00:39 | 9.26885 | -79.42716 | 10551 ft | 331 kts | 270° |
| 2026-05-05 00:40 | 9.26909 | -79.45133 | 10712 ft | 357 kts | 271° |
| 2026-05-05 00:40 | 9.26957 | -79.47733 | 10904 ft | 381 kts | 271° |
| 2026-05-05 00:40 | 9.26997 | -79.49535 | 11166 ft | 391 kts | 271° |
| 2026-05-05 00:40 | 9.27062 | -79.52327 | 11818 ft | 400 kts | 272° |
| 2026-05-05 00:41 | 9.27168 | -79.55157 | 12535 ft | 403 kts | 276° |
| 2026-05-05 00:41 | 9.27758 | -79.57961 | 13164 ft | 410 kts | 288° |
| 2026-05-05 00:41 | 9.28635 | -79.60728 | 13931 ft | 414 kts | 289° |
| 2026-05-05 00:41 | 9.29520 | -79.63512 | 14686 ft | 417 kts | 289° |
| 2026-05-05 00:42 | 9.30378 | -79.66298 | 15416 ft | 420 kts | 288° |
| 2026-05-05 00:42 | 9.31226 | -79.69144 | 16133 ft | 424 kts | 288° |
| 2026-05-05 00:42 | 9.32058 | -79.72007 | 17047 ft | 422 kts | 287° |
| 2026-05-05 00:42 | 9.32882 | -79.74868 | 17786 ft | 425 kts | 287° |
| 2026-05-05 00:43 | 9.33712 | -79.77760 | 18420 ft | 430 kts | 287° |
| 2026-05-05 00:43 | 9.34552 | -79.80684 | 19005 ft | 434 kts | 287° |
| 2026-05-05 00:43 | 9.35397 | -79.83623 | 19610 ft | 437 kts | 287° |
| 2026-05-05 00:43 | 9.36017 | -79.86628 | 20089 ft | 439 kts | 274° |
| 2026-05-05 00:44 | 9.35679 | -79.89709 | 20582 ft | 441 kts | 256° |
| 2026-05-05 00:44 | 9.34871 | -79.92725 | 20975 ft | 447 kts | 256° |
| 2026-05-05 00:44 | 9.34101 | -79.95787 | 21541 ft | 450 kts | 257° |
| 2026-05-05 00:44 | 9.33359 | -79.98864 | 22189 ft | 451 kts | 258° |
| 2026-05-05 00:45 | 9.32629 | -80.01956 | 22799 ft | 453 kts | 258° |
| 2026-05-05 00:45 | 9.31902 | -80.05068 | 23322 ft | 456 kts | 257° |
| 2026-05-05 00:45 | 9.31168 | -80.08216 | 23708 ft | 462 kts | 257° |
| 2026-05-05 00:45 | 9.30427 | -80.11389 | 24114 ft | 465 kts | 257° |
| 2026-05-05 00:46 | 9.29678 | -80.14590 | 24548 ft | 468 kts | 257° |
| 2026-05-05 00:46 | 9.28936 | -80.17758 | 24982 ft | 470 kts | 257° |
| 2026-05-05 00:46 | 9.28178 | -80.20991 | 25399 ft | 473 kts | 257° |
| 2026-05-05 00:46 | 9.27404 | -80.24285 | 25810 ft | 476 kts | 257° |
| 2026-05-05 00:47 | 9.26646 | -80.27513 | 26202 ft | 479 kts | 257° |
| 2026-05-05 00:47 | 9.25873 | -80.30804 | 26591 ft | 482 kts | 257° |
| 2026-05-05 00:47 | 9.25094 | -80.34118 | 26986 ft | 486 kts | 257° |
| 2026-05-05 00:47 | 9.24310 | -80.37450 | 27373 ft | 489 kts | 257° |
| 2026-05-05 00:48 | 9.23519 | -80.40813 | 27746 ft | 492 kts | 257° |
| 2026-05-05 00:48 | 9.22725 | -80.44184 | 28148 ft | 494 kts | 257° |
| 2026-05-05 00:48 | 9.21924 | -80.47585 | 28611 ft | 495 kts | 257° |
| 2026-05-05 00:48 | 9.21124 | -80.50982 | 29080 ft | 496 kts | 257° |
| 2026-05-05 00:49 | 9.20324 | -80.54375 | 29574 ft | 496 kts | 257° |
| 2026-05-05 00:49 | 9.19524 | -80.57766 | 30160 ft | 494 kts | 257° |
| 2026-05-05 00:49 | 9.18728 | -80.61139 | 30676 ft | 492 kts | 257° |
| 2026-05-05 00:49 | 9.17933 | -80.64510 | 31133 ft | 492 kts | 257° |
| 2026-05-05 00:50 | 9.17146 | -80.67843 | 31584 ft | 492 kts | 257° |
| 2026-05-05 00:50 | 9.16350 | -80.71212 | 31909 ft | 491 kts | 257° |
| 2026-05-05 00:50 | 9.15557 | -80.74570 | 31915 ft | 491 kts | 257° |
| 2026-05-05 00:51 | 9.13964 | -80.81309 | 31936 ft | 494 kts | 257° |
| 2026-05-05 00:51 | 9.12366 | -80.88061 | 31928 ft | 492 kts | 257° |
| 2026-05-05 00:52 | 9.10772 | -80.94795 | 31938 ft | 491 kts | 257° |
| 2026-05-05 00:52 | 9.09291 | -81.01547 | 31931 ft | 492 kts | 263° |
| 2026-05-05 00:53 | 9.09342 | -81.08434 | 31939 ft | 490 kts | 278° |
| 2026-05-05 00:53 | 9.10895 | -81.15151 | 31938 ft | 490 kts | 285° |
| 2026-05-05 00:54 | 9.12656 | -81.21780 | 31940 ft | 492 kts | 285° |
| 2026-05-05 00:54 | 9.14396 | -81.28475 | 31932 ft | 492 kts | 285° |
| 2026-05-05 00:55 | 9.16103 | -81.35192 | 31928 ft | 493 kts | 285° |
| 2026-05-05 00:55 | 9.17798 | -81.41914 | 31929 ft | 493 kts | 285° |
| 2026-05-05 00:56 | 9.19490 | -81.48629 | 31930 ft | 492 kts | 284° |
| 2026-05-05 00:56 | 9.21183 | -81.55345 | 31934 ft | 492 kts | 285° |
| 2026-05-05 00:57 | 9.22862 | -81.62006 | 31937 ft | 491 kts | 284° |
| 2026-05-05 00:57 | 9.24552 | -81.68716 | 31938 ft | 491 kts | 284° |
| 2026-05-05 00:58 | 9.26237 | -81.75414 | 31932 ft | 490 kts | 285° |
| 2026-05-05 00:58 | 9.27917 | -81.82098 | 31937 ft | 489 kts | 284° |
| 2026-05-05 00:59 | 9.29585 | -81.88741 | 31935 ft | 489 kts | 284° |
| 2026-05-05 00:59 | 9.31261 | -81.95419 | 31933 ft | 489 kts | 284° |
| 2026-05-05 01:00 | 9.32935 | -82.02093 | 31936 ft | 489 kts | 284° |
| 2026-05-05 01:00 | 9.34610 | -82.08778 | 31943 ft | 490 kts | 284° |
| 2026-05-05 01:01 | 9.36284 | -82.15467 | 31945 ft | 490 kts | 284° |
| 2026-05-05 01:01 | 9.37957 | -82.22157 | 31944 ft | 490 kts | 284° |
| 2026-05-05 01:02 | 9.39626 | -82.28834 | 31940 ft | 489 kts | 284° |
| 2026-05-05 01:02 | 9.41291 | -82.35502 | 31942 ft | 487 kts | 284° |
| 2026-05-05 01:03 | 9.42951 | -82.42156 | 31956 ft | 487 kts | 284° |
| 2026-05-05 01:03 | 9.44598 | -82.48765 | 31957 ft | 487 kts | 284° |
| 2026-05-05 01:04 | 9.46233 | -82.55331 | 31806 ft | 472 kts | 284° |
| 2026-05-05 01:04 | 9.47812 | -82.61675 | 31544 ft | 458 kts | 284° |
| 2026-05-05 01:04 | 9.48587 | -82.64791 | 31245 ft | 456 kts | 284° |
| 2026-05-05 01:05 | 9.49360 | -82.67903 | 30907 ft | 454 kts | 284° |
| 2026-05-05 01:05 | 9.50130 | -82.71002 | 30598 ft | 452 kts | 284° |
| 2026-05-05 01:05 | 9.50894 | -82.74078 | 30344 ft | 449 kts | 284° |
| 2026-05-05 01:05 | 9.51654 | -82.77136 | 30057 ft | 446 kts | 284° |
| 2026-05-05 01:06 | 9.52410 | -82.80184 | 29681 ft | 445 kts | 284° |
| 2026-05-05 01:06 | 9.53165 | -82.83227 | 29288 ft | 445 kts | 284° |
| 2026-05-05 01:06 | 9.53917 | -82.86256 | 28974 ft | 442 kts | 285° |
| 2026-05-05 01:06 | 9.54763 | -82.89235 | 28686 ft | 439 kts | 288° |
| 2026-05-05 01:07 | 9.55687 | -82.92172 | 28398 ft | 436 kts | 288° |
| 2026-05-05 01:07 | 9.56628 | -82.95087 | 28087 ft | 434 kts | 289° |
| 2026-05-05 01:07 | 9.57569 | -82.97985 | 27787 ft | 432 kts | 289° |
| 2026-05-05 01:07 | 9.58501 | -83.00871 | 27514 ft | 430 kts | 288° |
| 2026-05-05 01:08 | 9.59423 | -83.03744 | 27225 ft | 428 kts | 288° |
| 2026-05-05 01:08 | 9.60337 | -83.06610 | 26938 ft | 426 kts | 288° |
| 2026-05-05 01:08 | 9.61244 | -83.09460 | 26663 ft | 424 kts | 288° |
| 2026-05-05 01:08 | 9.62145 | -83.12296 | 26370 ft | 422 kts | 288° |
| 2026-05-05 01:09 | 9.63040 | -83.15118 | 26105 ft | 420 kts | 288° |
| 2026-05-05 01:09 | 9.63834 | -83.17963 | 25839 ft | 419 kts | 282° |
| 2026-05-05 01:09 | 9.64262 | -83.20878 | 25561 ft | 418 kts | 277° |
| 2026-05-05 01:09 | 9.64598 | -83.23798 | 25303 ft | 416 kts | 277° |
| 2026-05-05 01:10 | 9.64938 | -83.26710 | 25047 ft | 415 kts | 277° |
| 2026-05-05 01:10 | 9.65282 | -83.29603 | 24790 ft | 413 kts | 277° |
| 2026-05-05 01:10 | 9.65627 | -83.32453 | 24580 ft | 411 kts | 277° |
| 2026-05-05 01:10 | 9.65977 | -83.35324 | 24344 ft | 410 kts | 278° |
| 2026-05-05 01:11 | 9.66329 | -83.38181 | 24103 ft | 408 kts | 278° |
| 2026-05-05 01:11 | 9.66681 | -83.41030 | 23868 ft | 407 kts | 278° |
| 2026-05-05 01:11 | 9.67032 | -83.43869 | 23638 ft | 405 kts | 278° |
| 2026-05-05 01:11 | 9.67382 | -83.46703 | 23384 ft | 404 kts | 278° |
| 2026-05-05 01:12 | 9.67729 | -83.49521 | 23124 ft | 402 kts | 278° |
| 2026-05-05 01:12 | 9.68077 | -83.52334 | 22850 ft | 401 kts | 278° |
| 2026-05-05 01:12 | 9.68423 | -83.55136 | 22568 ft | 400 kts | 278° |
| 2026-05-05 01:12 | 9.68768 | -83.57938 | 22287 ft | 400 kts | 277° |
| 2026-05-05 01:13 | 9.69112 | -83.60731 | 22034 ft | 399 kts | 278° |
| 2026-05-05 01:13 | 9.69455 | -83.63518 | 21797 ft | 398 kts | 278° |
| 2026-05-05 01:13 | 9.69797 | -83.66293 | 21456 ft | 396 kts | 278° |
| 2026-05-05 01:13 | 9.70132 | -83.69021 | 21031 ft | 394 kts | 278° |
| 2026-05-05 01:14 | 9.70470 | -83.71769 | 20595 ft | 392 kts | 278° |
| 2026-05-05 01:14 | 9.70806 | -83.74510 | 20166 ft | 391 kts | 278° |
| 2026-05-05 01:14 | 9.71139 | -83.77233 | 19728 ft | 389 kts | 278° |
| 2026-05-05 01:14 | 9.71472 | -83.79956 | 19274 ft | 388 kts | 278° |
| 2026-05-05 01:15 | 9.71805 | -83.82666 | 18851 ft | 387 kts | 277° |
| 2026-05-05 01:15 | 9.72138 | -83.85379 | 18381 ft | 388 kts | 278° |
| 2026-05-05 01:15 | 9.72471 | -83.88099 | 17829 ft | 389 kts | 277° |
| 2026-05-05 01:15 | 9.72803 | -83.90818 | 17338 ft | 387 kts | 277° |
| 2026-05-05 01:16 | 9.73133 | -83.93518 | 16872 ft | 385 kts | 277° |
| 2026-05-05 01:16 | 9.73460 | -83.96205 | 16420 ft | 383 kts | 277° |
| 2026-05-05 01:16 | 9.73786 | -83.98877 | 15974 ft | 381 kts | 277° |
| 2026-05-05 01:16 | 9.74111 | -84.01543 | 15412 ft | 382 kts | 277° |
| 2026-05-05 01:17 | 9.74437 | -84.04222 | 14924 ft | 382 kts | 277° |
| 2026-05-05 01:17 | 9.74761 | -84.06885 | 14448 ft | 380 kts | 277° |
| 2026-05-05 01:17 | 9.75082 | -84.09522 | 14017 ft | 377 kts | 277° |
| 2026-05-05 01:17 | 9.75398 | -84.12118 | 13587 ft | 375 kts | 277° |
| 2026-05-05 01:18 | 9.75715 | -84.14728 | 13134 ft | 370 kts | 277° |
| 2026-05-05 01:18 | 9.76022 | -84.17258 | 12707 ft | 353 kts | 277° |
| 2026-05-05 01:18 | 9.76316 | -84.19688 | 12300 ft | 340 kts | 277° |
| 2026-05-05 01:18 | 9.76604 | -84.22059 | 11919 ft | 337 kts | 277° |
| 2026-05-05 01:19 | 9.76883 | -84.24362 | 11646 ft | 318 kts | 277° |
| 2026-05-05 01:19 | 9.77145 | -84.26522 | 11224 ft | 303 kts | 277° |
| 2026-05-05 01:19 | 9.77401 | -84.28637 | 10901 ft | 300 kts | 277° |
| 2026-05-05 01:19 | 9.77651 | -84.30709 | 10678 ft | 293 kts | 277° |
| 2026-05-05 01:20 | 9.77893 | -84.32708 | 10631 ft | 277 kts | 277° |
| 2026-05-05 01:20 | 9.78121 | -84.34594 | 10577 ft | 262 kts | 277° |
| 2026-05-05 01:20 | 9.78337 | -84.36381 | 10492 ft | 247 kts | 277° |
| 2026-05-05 01:20 | 9.78543 | -84.38087 | 10394 ft | 243 kts | 277° |
| 2026-05-05 01:21 | 9.78753 | -84.39821 | 10368 ft | 255 kts | 277° |
| 2026-05-05 01:21 | 9.78972 | -84.41631 | 10245 ft | 264 kts | 277° |
| 2026-05-05 01:21 | 9.79394 | -84.43418 | 9974 ft | 261 kts | 299° |
| 2026-05-05 01:21 | 9.80598 | -84.44726 | 9888 ft | 253 kts | 330° |
| 2026-05-05 01:22 | 9.82203 | -84.45404 | 9876 ft | 250 kts | 346° |
| 2026-05-05 01:22 | 9.83886 | -84.45849 | 9878 ft | 251 kts | 347° |
| 2026-05-05 01:22 | 9.85576 | -84.46292 | 9874 ft | 251 kts | 347° |
| 2026-05-05 01:22 | 9.87271 | -84.46683 | 9761 ft | 247 kts | 357° |
| 2026-05-05 01:23 | 9.88904 | -84.46382 | 9230 ft | 237 kts | 29° |
| 2026-05-05 01:23 | 9.90123 | -84.45305 | 8514 ft | 233 kts | 55° |
| 2026-05-05 01:23 | 9.90862 | -84.43862 | 8216 ft | 230 kts | 68° |
| 2026-05-05 01:23 | 9.91426 | -84.42350 | 7838 ft | 228 kts | 70° |
| 2026-05-05 01:24 | 9.91968 | -84.40838 | 7286 ft | 227 kts | 70° |
| 2026-05-05 01:24 | 9.92515 | -84.39346 | 6777 ft | 220 kts | 69° |
| 2026-05-05 01:24 | 9.93034 | -84.37946 | 6477 ft | 204 kts | 69° |
| 2026-05-05 01:24 | 9.93518 | -84.36646 | 6139 ft | 193 kts | 69° |
| 2026-05-05 01:25 | 9.93983 | -84.35396 | 5629 ft | 187 kts | 69° |
| 2026-05-05 01:25 | 9.94433 | -84.34187 | 5403 ft | 181 kts | 68° |
| 2026-05-05 01:25 | 9.94877 | -84.32995 | 5183 ft | 183 kts | 68° |
| 2026-05-05 01:25 | 9.95328 | -84.31783 | 4945 ft | 179 kts | 68° |
| 2026-05-05 01:26 | 9.95753 | -84.30643 | 4728 ft | 169 kts | 68° |
| 2026-05-05 01:26 | 9.96149 | -84.29576 | 4511 ft | 154 kts | 67° |
| 2026-05-05 01:26 | 9.96528 | -84.28563 | 4374 ft | 155 kts | 69° |
| 2026-05-05 01:26 | 9.96911 | -84.27535 | 4158 ft | 157 kts | 69° |
| 2026-05-05 01:27 | 9.97296 | -84.26499 | 3923 ft | 156 kts | 68° |
| 2026-05-05 01:27 | 9.97678 | -84.25478 | 3699 ft | 154 kts | 68° |
| 2026-05-05 01:27 | 9.97930 | -84.24809 | 3561 ft | 151 kts | 68° |
| 2026-05-05 01:27 | 9.98294 | -84.23815 | 3358 ft | 150 kts | 68° |
| 2026-05-05 01:28 | 9.98670 | -84.22826 | 3148 ft | 151 kts | 68° |
| 2026-05-05 01:28 | 9.99040 | -84.21828 | 3019 ft | 147 kts | 69° |
| 2026-05-05 01:28 | 9.99349 | -84.20997 | 3012 ft | 100 kts | 69° |
| 2026-05-05 01:28 | 9.99546 | -84.20475 | 3012 ft | 44 kts | 69° |
| 2026-05-05 01:29 | 9.99567 | -84.20430 | 3012 ft | 3 kts | 40° |
| 2026-05-05 01:29 | 9.99592 | -84.20429 | 3012 ft | 4 kts | 342° |
| 2026-05-05 01:29 | 9.99618 | -84.20442 | 3014 ft | 4 kts | 334° |
| 2026-05-05 01:29 | 9.99636 | -84.20464 | 3016 ft | 4 kts | 289° |
| 2026-05-05 01:30 | 9.99631 | -84.20494 | 3017 ft | 4 kts | 253° |
| 2026-05-05 01:30 | 9.99621 | -84.20522 | 3017 ft | 4 kts | 251° |
| 2026-05-05 01:30 | 9.99608 | -84.20561 | 3017 ft | 8 kts | 251° |
| 2026-05-05 01:30 | 9.99588 | -84.20614 | 3016 ft | 8 kts | 247° |
| 2026-05-05 01:31 | 9.99563 | -84.20678 | 3016 ft | 11 kts | 250° |
| 2026-05-05 01:31 | 9.99534 | -84.20757 | 3017 ft | 12 kts | 250° |
| 2026-05-05 01:31 | 9.99504 | -84.20837 | 3021 ft | 12 kts | 249° |
| 2026-05-05 01:31 | 9.99485 | -84.20908 | 3017 ft | 9 kts | 271° |
| 2026-05-05 01:32 | 9.99531 | -84.20947 | 3025 ft | 8 kts | 336° |
| 2026-05-05 01:32 | 9.99568 | -84.20983 | 3028 ft | 8 kts | 302° |
| 2026-05-05 01:32 | 9.99614 | -84.21009 | 3026 ft | 6 kts | 339° |
| 2026-05-05 01:32 | 9.99625 | -84.21013 | 3024 ft | 0 kts | 339° |